sensor_id;sensor_type;location;lat;lon;timestamp;P1;durP1;ratioP1;P2;durP2;ratioP2
55210;SDS011;41082;52.822;6.666;2024-03-08T00:00:14;31.88;;;16.92;;
55210;SDS011;41082;52.822;6.666;2024-03-08T00:02:43;25.52;;;14.98;;
55210;SDS011;41082;52.822;6.666;2024-03-08T00:05:09;27.35;;;15.50;;
55210;SDS011;41082;52.822;6.666;2024-03-08T00:07:35;28.23;;;15.80;;
55210;SDS011;41082;52.822;6.666;2024-03-08T00:10:02;25.33;;;15.70;;
55210;SDS011;41082;52.822;6.666;2024-03-08T00:12:36;25.05;;;15.48;;
55210;SDS011;41082;52.822;6.666;2024-03-08T00:15:02;30.00;;;15.85;;
55210;SDS011;41082;52.822;6.666;2024-03-08T00:17:28;31.02;;;16.52;;
55210;SDS011;41082;52.822;6.666;2024-03-08T00:19:53;24.83;;;15.30;;
55210;SDS011;41082;52.822;6.666;2024-03-08T00:22:19;28.10;;;15.77;;
55210;SDS011;41082;52.822;6.666;2024-03-08T00:24:44;28.23;;;15.60;;
55210;SDS011;41082;52.822;6.666;2024-03-08T00:27:10;26.42;;;15.65;;
55210;SDS011;41082;52.822;6.666;2024-03-08T00:29:36;24.90;;;15.00;;
55210;SDS011;41082;52.822;6.666;2024-03-08T00:32:05;27.52;;;15.45;;
55210;SDS011;41082;52.822;6.666;2024-03-08T00:34:34;27.60;;;15.77;;
55210;SDS011;41082;52.822;6.666;2024-03-08T00:37:01;26.17;;;15.65;;
55210;SDS011;41082;52.822;6.666;2024-03-08T00:39:28;25.23;;;15.40;;
55210;SDS011;41082;52.822;6.666;2024-03-08T00:41:53;27.80;;;16.98;;
55210;SDS011;41082;52.822;6.666;2024-03-08T00:44:19;26.95;;;15.85;;
55210;SDS011;41082;52.822;6.666;2024-03-08T00:46:45;29.75;;;16.73;;
55210;SDS011;41082;52.822;6.666;2024-03-08T00:49:10;28.02;;;16.40;;
55210;SDS011;41082;52.822;6.666;2024-03-08T00:51:37;27.20;;;16.42;;
55210;SDS011;41082;52.822;6.666;2024-03-08T00:54:03;29.10;;;16.83;;
55210;SDS011;41082;52.822;6.666;2024-03-08T00:56:28;28.02;;;15.55;;
55210;SDS011;41082;52.822;6.666;2024-03-08T00:58:54;29.42;;;16.65;;
55210;SDS011;41082;52.822;6.666;2024-03-08T01:01:20;29.00;;;16.75;;
55210;SDS011;41082;52.822;6.666;2024-03-08T01:03:45;27.85;;;17.05;;
55210;SDS011;41082;52.822;6.666;2024-03-08T01:06:11;27.83;;;16.45;;
55210;SDS011;41082;52.822;6.666;2024-03-08T01:08:37;31.45;;;17.38;;
55210;SDS011;41082;52.822;6.666;2024-03-08T01:11:03;32.70;;;17.35;;
55210;SDS011;41082;52.822;6.666;2024-03-08T01:13:30;32.50;;;17.80;;
55210;SDS011;41082;52.822;6.666;2024-03-08T01:15:55;30.45;;;17.73;;
55210;SDS011;41082;52.822;6.666;2024-03-08T01:18:21;32.55;;;18.73;;
55210;SDS011;41082;52.822;6.666;2024-03-08T01:20:47;30.05;;;16.70;;
55210;SDS011;41082;52.822;6.666;2024-03-08T01:23:12;29.23;;;16.90;;
55210;SDS011;41082;52.822;6.666;2024-03-08T01:25:38;30.58;;;17.38;;
55210;SDS011;41082;52.822;6.666;2024-03-08T01:28:04;32.15;;;17.45;;
55210;SDS011;41082;52.822;6.666;2024-03-08T01:30:30;31.77;;;17.65;;
55210;SDS011;41082;52.822;6.666;2024-03-08T01:32:57;31.15;;;18.08;;
55210;SDS011;41082;52.822;6.666;2024-03-08T01:35:23;29.50;;;18.45;;
55210;SDS011;41082;52.822;6.666;2024-03-08T01:37:49;28.13;;;17.48;;
55210;SDS011;41082;52.822;6.666;2024-03-08T01:40:15;29.83;;;18.05;;
55210;SDS011;41082;52.822;6.666;2024-03-08T01:42:41;29.70;;;17.85;;
55210;SDS011;41082;52.822;6.666;2024-03-08T01:45:07;33.10;;;18.52;;
55210;SDS011;41082;52.822;6.666;2024-03-08T01:47:34;29.55;;;17.77;;
55210;SDS011;41082;52.822;6.666;2024-03-08T01:50:00;29.85;;;18.65;;
55210;SDS011;41082;52.822;6.666;2024-03-08T01:52:31;28.02;;;17.55;;
55210;SDS011;41082;52.822;6.666;2024-03-08T01:54:59;31.58;;;17.23;;
55210;SDS011;41082;52.822;6.666;2024-03-08T01:57:27;32.58;;;17.52;;
55210;SDS011;41082;52.822;6.666;2024-03-08T01:59:53;29.88;;;17.75;;
55210;SDS011;41082;52.822;6.666;2024-03-08T02:02:21;29.85;;;18.25;;
55210;SDS011;41082;52.822;6.666;2024-03-08T02:04:48;28.02;;;17.08;;
55210;SDS011;41082;52.822;6.666;2024-03-08T02:07:14;30.77;;;17.48;;
55210;SDS011;41082;52.822;6.666;2024-03-08T02:09:39;29.73;;;17.95;;
55210;SDS011;41082;52.822;6.666;2024-03-08T02:12:05;32.17;;;18.65;;
55210;SDS011;41082;52.822;6.666;2024-03-08T02:14:33;31.38;;;17.88;;
55210;SDS011;41082;52.822;6.666;2024-03-08T02:17:02;28.92;;;16.83;;
55210;SDS011;41082;52.822;6.666;2024-03-08T02:19:27;29.98;;;17.27;;
55210;SDS011;41082;52.822;6.666;2024-03-08T02:21:53;33.22;;;17.85;;
55210;SDS011;41082;52.822;6.666;2024-03-08T02:24:19;30.63;;;18.30;;
55210;SDS011;41082;52.822;6.666;2024-03-08T02:26:45;29.98;;;18.63;;
55210;SDS011;41082;52.822;6.666;2024-03-08T02:29:11;38.22;;;17.55;;
55210;SDS011;41082;52.822;6.666;2024-03-08T02:31:36;32.78;;;19.83;;
55210;SDS011;41082;52.822;6.666;2024-03-08T02:34:04;30.70;;;17.27;;
55210;SDS011;41082;52.822;6.666;2024-03-08T02:36:30;27.55;;;17.70;;
55210;SDS011;41082;52.822;6.666;2024-03-08T02:38:59;29.17;;;17.88;;
55210;SDS011;41082;52.822;6.666;2024-03-08T02:41:27;29.27;;;17.17;;
55210;SDS011;41082;52.822;6.666;2024-03-08T02:43:52;33.22;;;19.17;;
55210;SDS011;41082;52.822;6.666;2024-03-08T02:46:18;30.95;;;17.90;;
55210;SDS011;41082;52.822;6.666;2024-03-08T02:48:43;31.45;;;18.05;;
55210;SDS011;41082;52.822;6.666;2024-03-08T02:51:09;32.03;;;17.13;;
55210;SDS011;41082;52.822;6.666;2024-03-08T02:53:35;32.55;;;18.98;;
55210;SDS011;41082;52.822;6.666;2024-03-08T02:56:02;30.02;;;18.73;;
55210;SDS011;41082;52.822;6.666;2024-03-08T02:58:28;33.42;;;18.70;;
55210;SDS011;41082;52.822;6.666;2024-03-08T03:00:54;29.77;;;17.80;;
55210;SDS011;41082;52.822;6.666;2024-03-08T03:03:20;31.80;;;17.90;;
55210;SDS011;41082;52.822;6.666;2024-03-08T03:05:45;27.98;;;17.23;;
55210;SDS011;41082;52.822;6.666;2024-03-08T03:08:11;30.25;;;17.52;;
55210;SDS011;41082;52.822;6.666;2024-03-08T03:10:38;29.77;;;17.75;;
55210;SDS011;41082;52.822;6.666;2024-03-08T03:13:03;26.83;;;17.42;;
55210;SDS011;41082;52.822;6.666;2024-03-08T03:15:33;29.58;;;17.05;;
55210;SDS011;41082;52.822;6.666;2024-03-08T03:17:58;31.35;;;17.52;;
55210;SDS011;41082;52.822;6.666;2024-03-08T03:20:25;27.23;;;16.90;;
55210;SDS011;41082;52.822;6.666;2024-03-08T03:22:54;29.00;;;16.60;;
55210;SDS011;41082;52.822;6.666;2024-03-08T03:25:21;30.67;;;17.05;;
55210;SDS011;41082;52.822;6.666;2024-03-08T03:28:00;31.25;;;17.13;;
55210;SDS011;41082;52.822;6.666;2024-03-08T03:30:27;26.77;;;16.88;;
55210;SDS011;41082;52.822;6.666;2024-03-08T03:32:58;28.13;;;17.23;;
55210;SDS011;41082;52.822;6.666;2024-03-08T03:35:25;31.83;;;18.48;;
55210;SDS011;41082;52.822;6.666;2024-03-08T03:37:53;31.95;;;17.33;;
55210;SDS011;41082;52.822;6.666;2024-03-08T03:40:34;33.85;;;18.55;;
55210;SDS011;41082;52.822;6.666;2024-03-08T03:43:04;29.90;;;17.15;;
55210;SDS011;41082;52.822;6.666;2024-03-08T03:45:29;29.05;;;17.27;;
55210;SDS011;41082;52.822;6.666;2024-03-08T03:47:59;29.10;;;16.45;;
55210;SDS011;41082;52.822;6.666;2024-03-08T03:50:27;26.90;;;16.58;;
55210;SDS011;41082;52.822;6.666;2024-03-08T03:52:53;30.50;;;17.00;;
55210;SDS011;41082;52.822;6.666;2024-03-08T03:55:18;30.30;;;17.52;;
55210;SDS011;41082;52.822;6.666;2024-03-08T03:57:45;30.65;;;17.10;;
55210;SDS011;41082;52.822;6.666;2024-03-08T04:00:11;31.65;;;17.95;;
55210;SDS011;41082;52.822;6.666;2024-03-08T04:02:40;32.05;;;18.27;;
55210;SDS011;41082;52.822;6.666;2024-03-08T04:05:06;29.08;;;16.65;;
55210;SDS011;41082;52.822;6.666;2024-03-08T04:07:32;27.73;;;16.73;;
55210;SDS011;41082;52.822;6.666;2024-03-08T04:09:59;31.08;;;17.38;;
55210;SDS011;41082;52.822;6.666;2024-03-08T04:12:25;27.40;;;17.85;;
55210;SDS011;41082;52.822;6.666;2024-03-08T04:14:51;30.40;;;17.30;;
55210;SDS011;41082;52.822;6.666;2024-03-08T04:17:18;28.88;;;17.08;;
55210;SDS011;41082;52.822;6.666;2024-03-08T04:19:44;29.17;;;17.27;;
55210;SDS011;41082;52.822;6.666;2024-03-08T04:22:09;29.63;;;16.80;;
55210;SDS011;41082;52.822;6.666;2024-03-08T04:24:35;30.63;;;17.20;;
55210;SDS011;41082;52.822;6.666;2024-03-08T04:27:00;30.20;;;17.48;;
55210;SDS011;41082;52.822;6.666;2024-03-08T04:29:26;28.80;;;17.05;;
55210;SDS011;41082;52.822;6.666;2024-03-08T04:31:52;27.83;;;16.83;;
55210;SDS011;41082;52.822;6.666;2024-03-08T04:34:19;29.80;;;17.13;;
55210;SDS011;41082;52.822;6.666;2024-03-08T04:36:46;31.67;;;17.80;;
55210;SDS011;41082;52.822;6.666;2024-03-08T04:39:12;27.20;;;16.30;;
55210;SDS011;41082;52.822;6.666;2024-03-08T04:41:38;27.75;;;16.92;;
55210;SDS011;41082;52.822;6.666;2024-03-08T04:44:04;27.88;;;16.65;;
55210;SDS011;41082;52.822;6.666;2024-03-08T04:46:30;28.85;;;16.58;;
55210;SDS011;41082;52.822;6.666;2024-03-08T04:48:56;28.73;;;17.25;;
55210;SDS011;41082;52.822;6.666;2024-03-08T04:51:23;32.35;;;17.38;;
55210;SDS011;41082;52.822;6.666;2024-03-08T04:53:50;29.75;;;17.38;;
55210;SDS011;41082;52.822;6.666;2024-03-08T04:56:15;30.52;;;17.58;;
55210;SDS011;41082;52.822;6.666;2024-03-08T04:58:41;28.23;;;16.63;;
55210;SDS011;41082;52.822;6.666;2024-03-08T05:01:07;27.08;;;16.77;;
55210;SDS011;41082;52.822;6.666;2024-03-08T05:03:35;29.88;;;17.95;;
55210;SDS011;41082;52.822;6.666;2024-03-08T05:06:01;29.23;;;16.25;;
55210;SDS011;41082;52.822;6.666;2024-03-08T05:08:26;31.88;;;17.52;;
55210;SDS011;41082;52.822;6.666;2024-03-08T05:10:52;29.15;;;17.33;;
55210;SDS011;41082;52.822;6.666;2024-03-08T05:13:18;31.05;;;17.27;;
55210;SDS011;41082;52.822;6.666;2024-03-08T05:15:43;27.70;;;17.50;;
55210;SDS011;41082;52.822;6.666;2024-03-08T05:18:12;32.40;;;17.85;;
55210;SDS011;41082;52.822;6.666;2024-03-08T05:20:39;29.52;;;17.77;;
55210;SDS011;41082;52.822;6.666;2024-03-08T05:23:06;29.17;;;17.17;;
55210;SDS011;41082;52.822;6.666;2024-03-08T05:25:32;27.55;;;16.23;;
55210;SDS011;41082;52.822;6.666;2024-03-08T05:27:57;36.10;;;18.40;;
55210;SDS011;41082;52.822;6.666;2024-03-08T05:30:23;29.95;;;17.70;;
55210;SDS011;41082;52.822;6.666;2024-03-08T05:32:48;30.75;;;17.80;;
55210;SDS011;41082;52.822;6.666;2024-03-08T05:35:14;30.05;;;17.60;;
55210;SDS011;41082;52.822;6.666;2024-03-08T05:37:41;31.08;;;18.23;;
55210;SDS011;41082;52.822;6.666;2024-03-08T05:40:07;30.67;;;17.75;;
55210;SDS011;41082;52.822;6.666;2024-03-08T05:42:36;31.27;;;18.92;;
55210;SDS011;41082;52.822;6.666;2024-03-08T05:45:02;27.73;;;17.33;;
55210;SDS011;41082;52.822;6.666;2024-03-08T05:47:31;31.05;;;17.92;;
55210;SDS011;41082;52.822;6.666;2024-03-08T05:50:00;35.13;;;18.55;;
55210;SDS011;41082;52.822;6.666;2024-03-08T05:52:26;32.85;;;18.98;;
55210;SDS011;41082;52.822;6.666;2024-03-08T05:54:52;32.05;;;19.85;;
55210;SDS011;41082;52.822;6.666;2024-03-08T05:57:18;30.17;;;17.75;;
55210;SDS011;41082;52.822;6.666;2024-03-08T05:59:44;32.15;;;17.88;;
55210;SDS011;41082;52.822;6.666;2024-03-08T06:02:10;33.40;;;18.33;;
55210;SDS011;41082;52.822;6.666;2024-03-08T06:04:35;30.67;;;17.50;;
55210;SDS011;41082;52.822;6.666;2024-03-08T06:07:01;31.10;;;17.70;;
55210;SDS011;41082;52.822;6.666;2024-03-08T06:09:28;33.00;;;18.30;;
55210;SDS011;41082;52.822;6.666;2024-03-08T06:11:54;30.85;;;17.35;;
55210;SDS011;41082;52.822;6.666;2024-03-08T06:14:20;34.53;;;17.95;;
55210;SDS011;41082;52.822;6.666;2024-03-08T06:16:46;32.92;;;19.25;;
55210;SDS011;41082;52.822;6.666;2024-03-08T06:19:12;33.13;;;18.27;;
55210;SDS011;41082;52.822;6.666;2024-03-08T06:21:38;31.00;;;18.67;;
55210;SDS011;41082;52.822;6.666;2024-03-08T06:24:04;30.00;;;17.45;;
55210;SDS011;41082;52.822;6.666;2024-03-08T06:26:30;32.33;;;18.63;;
55210;SDS011;41082;52.822;6.666;2024-03-08T06:28:56;28.33;;;17.45;;
55210;SDS011;41082;52.822;6.666;2024-03-08T06:31:22;31.08;;;17.98;;
55210;SDS011;41082;52.822;6.666;2024-03-08T06:33:48;33.78;;;18.73;;
55210;SDS011;41082;52.822;6.666;2024-03-08T06:36:17;29.02;;;18.23;;
55210;SDS011;41082;52.822;6.666;2024-03-08T06:38:49;30.30;;;18.10;;
55210;SDS011;41082;52.822;6.666;2024-03-08T06:41:15;30.00;;;17.85;;
55210;SDS011;41082;52.822;6.666;2024-03-08T06:43:41;31.20;;;18.35;;
55210;SDS011;41082;52.822;6.666;2024-03-08T06:46:07;31.52;;;18.30;;
55210;SDS011;41082;52.822;6.666;2024-03-08T06:48:34;32.88;;;19.50;;
55210;SDS011;41082;52.822;6.666;2024-03-08T06:51:00;34.05;;;17.70;;
55210;SDS011;41082;52.822;6.666;2024-03-08T06:53:25;30.75;;;18.52;;
55210;SDS011;41082;52.822;6.666;2024-03-08T06:55:51;33.60;;;18.55;;
55210;SDS011;41082;52.822;6.666;2024-03-08T06:58:16;29.80;;;17.55;;
55210;SDS011;41082;52.822;6.666;2024-03-08T07:00:42;33.67;;;19.38;;
55210;SDS011;41082;52.822;6.666;2024-03-08T07:03:09;33.88;;;19.05;;
55210;SDS011;41082;52.822;6.666;2024-03-08T07:05:37;30.92;;;18.38;;
55210;SDS011;41082;52.822;6.666;2024-03-08T07:08:04;32.38;;;19.55;;
55210;SDS011;41082;52.822;6.666;2024-03-08T07:10:31;31.65;;;18.25;;
55210;SDS011;41082;52.822;6.666;2024-03-08T07:12:56;29.38;;;17.98;;
55210;SDS011;41082;52.822;6.666;2024-03-08T07:15:22;32.72;;;19.00;;
55210;SDS011;41082;52.822;6.666;2024-03-08T07:17:48;28.67;;;17.67;;
55210;SDS011;41082;52.822;6.666;2024-03-08T07:20:14;32.40;;;19.25;;
55210;SDS011;41082;52.822;6.666;2024-03-08T07:22:43;32.60;;;18.40;;
55210;SDS011;41082;52.822;6.666;2024-03-08T07:25:13;34.83;;;19.10;;
55210;SDS011;41082;52.822;6.666;2024-03-08T07:27:57;30.67;;;18.33;;
55210;SDS011;41082;52.822;6.666;2024-03-08T07:30:23;33.28;;;19.50;;
55210;SDS011;41082;52.822;6.666;2024-03-08T07:33:09;31.38;;;18.15;;
55210;SDS011;41082;52.822;6.666;2024-03-08T07:35:38;31.98;;;19.58;;
55210;SDS011;41082;52.822;6.666;2024-03-08T07:38:07;30.63;;;19.10;;
55210;SDS011;41082;52.822;6.666;2024-03-08T07:43:09;32.47;;;19.02;;
55210;SDS011;41082;52.822;6.666;2024-03-08T07:45:40;29.85;;;17.75;;
55210;SDS011;41082;52.822;6.666;2024-03-08T07:48:07;30.45;;;20.10;;
55210;SDS011;41082;52.822;6.666;2024-03-08T07:50:38;30.83;;;19.00;;
55210;SDS011;41082;52.822;6.666;2024-03-08T07:53:05;35.00;;;19.25;;
55210;SDS011;41082;52.822;6.666;2024-03-08T07:55:35;32.28;;;19.60;;
55210;SDS011;41082;52.822;6.666;2024-03-08T07:58:04;31.75;;;20.30;;
55210;SDS011;41082;52.822;6.666;2024-03-08T08:00:30;29.13;;;19.15;;
55210;SDS011;41082;52.822;6.666;2024-03-08T08:02:56;32.92;;;19.00;;
55210;SDS011;41082;52.822;6.666;2024-03-08T08:05:22;32.75;;;20.38;;
55210;SDS011;41082;52.822;6.666;2024-03-08T08:07:48;30.92;;;19.67;;
55210;SDS011;41082;52.822;6.666;2024-03-08T08:10:14;29.63;;;18.30;;
55210;SDS011;41082;52.822;6.666;2024-03-08T08:12:49;30.25;;;18.88;;
55210;SDS011;41082;52.822;6.666;2024-03-08T08:15:15;33.33;;;19.38;;
55210;SDS011;41082;52.822;6.666;2024-03-08T08:17:44;32.15;;;18.67;;
55210;SDS011;41082;52.822;6.666;2024-03-08T08:20:10;31.23;;;19.63;;
55210;SDS011;41082;52.822;6.666;2024-03-08T08:22:37;31.25;;;20.25;;
55210;SDS011;41082;52.822;6.666;2024-03-08T08:25:06;31.95;;;19.90;;
55210;SDS011;41082;52.822;6.666;2024-03-08T08:27:32;34.65;;;19.70;;
55210;SDS011;41082;52.822;6.666;2024-03-08T08:29:58;29.88;;;19.90;;
55210;SDS011;41082;52.822;6.666;2024-03-08T08:32:24;30.52;;;19.58;;
55210;SDS011;41082;52.822;6.666;2024-03-08T08:34:50;34.42;;;19.98;;
55210;SDS011;41082;52.822;6.666;2024-03-08T08:37:15;31.25;;;19.48;;
55210;SDS011;41082;52.822;6.666;2024-03-08T08:39:41;32.53;;;20.63;;
55210;SDS011;41082;52.822;6.666;2024-03-08T08:42:07;33.63;;;20.77;;
55210;SDS011;41082;52.822;6.666;2024-03-08T08:44:34;29.80;;;19.48;;
55210;SDS011;41082;52.822;6.666;2024-03-08T08:47:00;35.80;;;20.13;;
55210;SDS011;41082;52.822;6.666;2024-03-08T08:49:28;32.92;;;20.58;;
55210;SDS011;41082;52.822;6.666;2024-03-08T08:51:55;31.48;;;20.23;;
55210;SDS011;41082;52.822;6.666;2024-03-08T08:54:23;31.38;;;20.88;;
55210;SDS011;41082;52.822;6.666;2024-03-08T08:56:50;31.27;;;20.63;;
55210;SDS011;41082;52.822;6.666;2024-03-08T08:59:16;33.45;;;20.48;;
55210;SDS011;41082;52.822;6.666;2024-03-08T09:01:45;32.78;;;20.45;;
55210;SDS011;41082;52.822;6.666;2024-03-08T09:04:15;29.42;;;19.10;;
55210;SDS011;41082;52.822;6.666;2024-03-08T09:06:41;34.65;;;21.70;;
55210;SDS011;41082;52.822;6.666;2024-03-08T09:09:07;33.22;;;20.27;;
55210;SDS011;41082;52.822;6.666;2024-03-08T09:11:38;31.02;;;20.33;;
55210;SDS011;41082;52.822;6.666;2024-03-08T09:14:07;29.75;;;20.05;;
55210;SDS011;41082;52.822;6.666;2024-03-08T09:16:33;31.60;;;20.65;;
55210;SDS011;41082;52.822;6.666;2024-03-08T09:18:58;32.00;;;21.20;;
55210;SDS011;41082;52.822;6.666;2024-03-08T09:21:24;33.97;;;22.08;;
55210;SDS011;41082;52.822;6.666;2024-03-08T09:23:52;32.35;;;21.67;;
55210;SDS011;41082;52.822;6.666;2024-03-08T09:26:18;31.48;;;21.05;;
55210;SDS011;41082;52.822;6.666;2024-03-08T09:28:45;34.08;;;20.75;;
55210;SDS011;41082;52.822;6.666;2024-03-08T09:31:11;31.83;;;20.55;;
55210;SDS011;41082;52.822;6.666;2024-03-08T09:33:37;30.73;;;21.15;;
55210;SDS011;41082;52.822;6.666;2024-03-08T09:36:05;32.10;;;21.17;;
55210;SDS011;41082;52.822;6.666;2024-03-08T09:38:33;30.40;;;21.42;;
55210;SDS011;41082;52.822;6.666;2024-03-08T09:41:02;30.63;;;21.63;;
55210;SDS011;41082;52.822;6.666;2024-03-08T09:43:29;31.40;;;21.30;;
55210;SDS011;41082;52.822;6.666;2024-03-08T09:45:55;30.85;;;21.33;;
55210;SDS011;41082;52.822;6.666;2024-03-08T09:48:22;33.55;;;21.48;;
55210;SDS011;41082;52.822;6.666;2024-03-08T09:50:48;32.70;;;22.38;;
55210;SDS011;41082;52.822;6.666;2024-03-08T09:53:14;35.75;;;22.85;;
55210;SDS011;41082;52.822;6.666;2024-03-08T09:55:41;31.23;;;21.70;;
55210;SDS011;41082;52.822;6.666;2024-03-08T09:58:11;31.70;;;21.55;;
55210;SDS011;41082;52.822;6.666;2024-03-08T10:00:56;30.02;;;21.00;;
55210;SDS011;41082;52.822;6.666;2024-03-08T10:03:23;29.55;;;20.73;;
55210;SDS011;41082;52.822;6.666;2024-03-08T10:05:51;34.45;;;22.20;;
55210;SDS011;41082;52.822;6.666;2024-03-08T10:08:17;32.63;;;21.90;;
55210;SDS011;41082;52.822;6.666;2024-03-08T10:10:43;31.63;;;22.05;;
55210;SDS011;41082;52.822;6.666;2024-03-08T10:13:10;30.67;;;20.88;;
55210;SDS011;41082;52.822;6.666;2024-03-08T10:15:39;31.83;;;21.98;;
55210;SDS011;41082;52.822;6.666;2024-03-08T10:18:05;30.42;;;22.00;;
55210;SDS011;41082;52.822;6.666;2024-03-08T10:20:32;30.85;;;22.05;;
55210;SDS011;41082;52.822;6.666;2024-03-08T10:23:01;31.35;;;21.30;;
55210;SDS011;41082;52.822;6.666;2024-03-08T10:25:28;31.38;;;21.35;;
55210;SDS011;41082;52.822;6.666;2024-03-08T10:27:57;31.00;;;22.75;;
55210;SDS011;41082;52.822;6.666;2024-03-08T10:30:23;30.15;;;21.60;;
55210;SDS011;41082;52.822;6.666;2024-03-08T10:32:49;31.00;;;21.58;;
55210;SDS011;41082;52.822;6.666;2024-03-08T10:35:14;30.23;;;20.60;;
55210;SDS011;41082;52.822;6.666;2024-03-08T10:37:48;31.75;;;21.75;;
55210;SDS011;41082;52.822;6.666;2024-03-08T10:40:22;27.77;;;20.50;;
55210;SDS011;41082;52.822;6.666;2024-03-08T10:45:18;28.73;;;20.98;;
55210;SDS011;41082;52.822;6.666;2024-03-08T10:50:53;27.52;;;19.10;;
55210;SDS011;41082;52.822;6.666;2024-03-08T10:53:19;29.25;;;20.23;;
55210;SDS011;41082;52.822;6.666;2024-03-08T10:55:46;28.58;;;20.33;;
55210;SDS011;41082;52.822;6.666;2024-03-08T10:58:13;32.83;;;22.00;;
55210;SDS011;41082;52.822;6.666;2024-03-08T11:00:40;32.03;;;22.27;;
55210;SDS011;41082;52.822;6.666;2024-03-08T11:03:06;28.52;;;20.42;;
55210;SDS011;41082;52.822;6.666;2024-03-08T11:05:54;30.33;;;21.00;;
55210;SDS011;41082;52.822;6.666;2024-03-08T11:08:20;28.38;;;20.95;;
55210;SDS011;41082;52.822;6.666;2024-03-08T11:10:49;30.83;;;21.58;;
55210;SDS011;41082;52.822;6.666;2024-03-08T11:16:12;28.58;;;19.92;;
55210;SDS011;41082;52.822;6.666;2024-03-08T11:19:33;30.10;;;20.58;;
55210;SDS011;41082;52.822;6.666;2024-03-08T11:21:40;26.55;;;19.92;;
55210;SDS011;41082;52.822;6.666;2024-03-08T11:24:10;25.75;;;19.48;;
55210;SDS011;41082;52.822;6.666;2024-03-08T11:26:38;27.90;;;20.67;;
55210;SDS011;41082;52.822;6.666;2024-03-08T11:32:04;27.23;;;19.92;;
55210;SDS011;41082;52.822;6.666;2024-03-08T11:34:35;27.90;;;20.13;;
55210;SDS011;41082;52.822;6.666;2024-03-08T11:37:05;27.08;;;20.50;;
55210;SDS011;41082;52.822;6.666;2024-03-08T11:39:35;28.08;;;20.58;;
55210;SDS011;41082;52.822;6.666;2024-03-08T11:42:02;29.88;;;20.30;;
55210;SDS011;41082;52.822;6.666;2024-03-08T11:44:29;27.77;;;20.38;;
55210;SDS011;41082;52.822;6.666;2024-03-08T11:46:56;27.35;;;19.42;;
55210;SDS011;41082;52.822;6.666;2024-03-08T11:49:22;30.50;;;19.80;;
55210;SDS011;41082;52.822;6.666;2024-03-08T11:51:52;24.95;;;18.95;;
55210;SDS011;41082;52.822;6.666;2024-03-08T11:54:18;23.88;;;18.38;;
55210;SDS011;41082;52.822;6.666;2024-03-08T11:56:45;28.17;;;19.75;;
55210;SDS011;41082;52.822;6.666;2024-03-08T11:59:13;26.90;;;19.25;;
55210;SDS011;41082;52.822;6.666;2024-03-08T12:01:39;28.20;;;20.17;;
55210;SDS011;41082;52.822;6.666;2024-03-08T12:04:05;25.77;;;19.23;;
55210;SDS011;41082;52.822;6.666;2024-03-08T12:06:38;27.25;;;19.55;;
55210;SDS011;41082;52.822;6.666;2024-03-08T12:09:08;26.90;;;19.33;;
55210;SDS011;41082;52.822;6.666;2024-03-08T12:11:35;28.10;;;19.65;;
55210;SDS011;41082;52.822;6.666;2024-03-08T12:14:01;25.58;;;18.77;;
55210;SDS011;41082;52.822;6.666;2024-03-08T12:16:28;26.38;;;18.85;;
55210;SDS011;41082;52.822;6.666;2024-03-08T12:18:54;25.48;;;18.83;;
55210;SDS011;41082;52.822;6.666;2024-03-08T12:21:20;25.85;;;19.48;;
55210;SDS011;41082;52.822;6.666;2024-03-08T12:23:47;25.02;;;18.13;;
55210;SDS011;41082;52.822;6.666;2024-03-08T12:26:28;23.00;;;17.95;;
55210;SDS011;41082;52.822;6.666;2024-03-08T12:28:53;26.38;;;17.88;;
55210;SDS011;41082;52.822;6.666;2024-03-08T12:31:39;24.80;;;18.60;;
55210;SDS011;41082;52.822;6.666;2024-03-08T12:34:07;28.90;;;19.50;;
55210;SDS011;41082;52.822;6.666;2024-03-08T12:36:35;27.05;;;18.48;;
55210;SDS011;41082;52.822;6.666;2024-03-08T12:39:05;24.33;;;19.20;;
55210;SDS011;41082;52.822;6.666;2024-03-08T12:41:40;25.83;;;18.92;;
55210;SDS011;41082;52.822;6.666;2024-03-08T12:44:06;25.90;;;18.80;;
55210;SDS011;41082;52.822;6.666;2024-03-08T12:46:36;22.80;;;18.63;;
55210;SDS011;41082;52.822;6.666;2024-03-08T12:49:08;26.33;;;18.75;;
55210;SDS011;41082;52.822;6.666;2024-03-08T12:51:35;24.85;;;19.00;;
55210;SDS011;41082;52.822;6.666;2024-03-08T12:54:04;23.50;;;18.65;;
55210;SDS011;41082;52.822;6.666;2024-03-08T12:56:33;26.50;;;19.48;;
55210;SDS011;41082;52.822;6.666;2024-03-08T12:59:00;25.60;;;19.45;;
55210;SDS011;41082;52.822;6.666;2024-03-08T13:01:26;25.38;;;19.63;;
55210;SDS011;41082;52.822;6.666;2024-03-08T13:03:52;26.52;;;20.27;;
55210;SDS011;41082;52.822;6.666;2024-03-08T13:06:19;23.92;;;18.52;;
55210;SDS011;41082;52.822;6.666;2024-03-08T13:08:49;24.97;;;18.77;;
55210;SDS011;41082;52.822;6.666;2024-03-08T13:11:20;22.15;;;17.80;;
55210;SDS011;41082;52.822;6.666;2024-03-08T13:13:46;24.73;;;18.85;;
55210;SDS011;41082;52.822;6.666;2024-03-08T13:16:12;26.13;;;19.15;;
55210;SDS011;41082;52.822;6.666;2024-03-08T13:18:40;22.67;;;17.80;;
55210;SDS011;41082;52.822;6.666;2024-03-08T13:21:12;21.92;;;17.02;;
55210;SDS011;41082;52.822;6.666;2024-03-08T13:23:40;23.00;;;17.00;;
55210;SDS011;41082;52.822;6.666;2024-03-08T13:26:10;23.10;;;17.80;;
55210;SDS011;41082;52.822;6.666;2024-03-08T13:28:41;23.50;;;17.77;;
55210;SDS011;41082;52.822;6.666;2024-03-08T13:31:21;23.40;;;17.80;;
55210;SDS011;41082;52.822;6.666;2024-03-08T13:33:47;24.98;;;18.10;;
55210;SDS011;41082;52.822;6.666;2024-03-08T13:36:13;22.63;;;16.33;;
55210;SDS011;41082;52.822;6.666;2024-03-08T13:38:43;22.60;;;16.73;;
55210;SDS011;41082;52.822;6.666;2024-03-08T13:41:13;21.85;;;16.85;;
55210;SDS011;41082;52.822;6.666;2024-03-08T13:43:40;23.40;;;16.47;;
55210;SDS011;41082;52.822;6.666;2024-03-08T13:46:06;22.35;;;16.85;;
55210;SDS011;41082;52.822;6.666;2024-03-08T13:48:33;25.17;;;16.73;;
55210;SDS011;41082;52.822;6.666;2024-03-08T13:50:59;21.38;;;16.92;;
55210;SDS011;41082;52.822;6.666;2024-03-08T13:53:25;23.27;;;17.05;;
55210;SDS011;41082;52.822;6.666;2024-03-08T13:55:51;22.55;;;17.80;;
55210;SDS011;41082;52.822;6.666;2024-03-08T13:58:17;21.77;;;16.60;;
55210;SDS011;41082;52.822;6.666;2024-03-08T14:00:42;19.48;;;16.23;;
55210;SDS011;41082;52.822;6.666;2024-03-08T14:03:11;23.05;;;16.02;;
55210;SDS011;41082;52.822;6.666;2024-03-08T14:05:41;20.20;;;16.23;;
55210;SDS011;41082;52.822;6.666;2024-03-08T14:08:07;21.52;;;15.98;;
55210;SDS011;41082;52.822;6.666;2024-03-08T14:10:37;22.25;;;16.05;;
55210;SDS011;41082;52.822;6.666;2024-03-08T14:13:03;23.83;;;16.23;;
55210;SDS011;41082;52.822;6.666;2024-03-08T14:15:33;20.27;;;15.40;;
55210;SDS011;41082;52.822;6.666;2024-03-08T14:17:59;23.80;;;17.25;;
55210;SDS011;41082;52.822;6.666;2024-03-08T14:20:26;19.73;;;15.85;;
55210;SDS011;41082;52.822;6.666;2024-03-08T14:22:53;23.83;;;16.20;;
55210;SDS011;41082;52.822;6.666;2024-03-08T14:25:19;20.92;;;15.68;;
55210;SDS011;41082;52.822;6.666;2024-03-08T14:27:49;20.73;;;15.82;;
55210;SDS011;41082;52.822;6.666;2024-03-08T14:30:18;19.25;;;14.65;;
55210;SDS011;41082;52.822;6.666;2024-03-08T14:33:00;20.33;;;15.93;;
55210;SDS011;41082;52.822;6.666;2024-03-08T14:35:27;19.08;;;15.18;;